Time;durP1;ratioP1;P1;durP2;ratioP2;P2;SDS_P1;SDS_P2;PMS_P1;PMS_P2;Temp;Humidity;BMP_temperature;BMP_pressure;BME280_temperature;BME280_humidity;BME280_pressure;Samples;Min_cycle;Max_cycle;Signal;HPM_P1;HPM_P2
2023/05/13 00:01:47;;;;;;;4.45;2.45;;;14.70;99.90;;;;;;4953837;28;20030;-71
2023/05/13 00:04:13;;;;;;;4.47;2.17;;;14.70;99.90;;;;;;4953242;28;20034;-74
2023/05/13 00:06:39;;;;;;;2.70;1.80;;;14.60;99.90;;;;;;4953984;28;20618;-74
2023/05/13 00:09:05;;;;;;;3.05;1.90;;;14.60;99.90;;;;;;4953226;28;20038;-73
2023/05/13 00:11:32;;;;;;;4.90;1.80;;;14.60;99.90;;;;;;4956803;28;20851;-75
2023/05/13 00:13:59;;;;;;;3.53;1.80;;;14.50;99.90;;;;;;4959460;28;20050;-73
2023/05/13 00:16:27;;;;;;;2.75;1.60;;;14.50;99.90;;;;;;4957826;28;20144;-77
2023/05/13 00:18:54;;;;;;;5.97;2.20;;;14.50;99.90;;;;;;4950122;28;20045;-71
2023/05/13 00:21:21;;;;;;;2.85;1.63;;;14.40;99.90;;;;;;4964561;28;20414;-76
2023/05/13 00:23:47;;;;;;;5.65;2.58;;;14.40;99.90;;;;;;4951765;28;20322;-73
2023/05/13 00:26:14;;;;;;;3.53;2.00;;;14.30;99.90;;;;;;4952394;28;20046;-75
2023/05/13 00:28:41;;;;;;;5.65;2.95;;;14.30;99.90;;;;;;4967723;28;20682;-71
2023/05/13 00:31:09;;;;;;;6.95;2.50;;;14.30;99.90;;;;;;4953294;28;20041;-71
2023/05/13 00:33:35;;;;;;;3.60;2.13;;;14.20;99.90;;;;;;4943900;28;20827;-72
2023/05/13 00:36:01;;;;;;;3.03;1.85;;;14.30;99.90;;;;;;4961874;28;20748;-75
2023/05/13 00:38:28;;;;;;;5.35;2.53;;;14.20;99.90;;;;;;4955077;28;20033;-73
2023/05/13 00:40:54;;;;;;;3.03;2.13;;;14.20;99.90;;;;;;4927891;28;20774;-75
2023/05/13 00:43:20;;;;;;;3.97;3.00;;;14.20;99.90;;;;;;4950700;28;20053;-74
2023/05/13 00:45:47;;;;;;;6.72;1.98;;;14.20;99.90;;;;;;4954148;28;20042;-71
2023/05/13 00:48:13;;;;;;;3.33;2.38;;;14.10;99.90;;;;;;4968564;28;20039;-73
2023/05/13 00:50:43;;;;;;;2.65;2.05;;;14.10;99.90;;;;;;4943379;28;20031;-73
2023/05/13 00:53:11;;;;;;;4.38;2.15;;;14.00;99.90;;;;;;4958906;28;20042;-72
2023/05/13 00:55:44;;;;;;;5.20;2.40;;;14.00;99.90;;;;;;4959421;28;20031;-74
2023/05/13 00:58:12;;;;;;;5.85;2.75;;;13.90;99.90;;;;;;4954211;28;20022;-75
2023/05/13 01:01:08;;;;;;;5.22;3.20;;;13.90;99.90;;;;;;4940369;28;20045;-72
2023/05/13 01:03:41;;;;;;;4.07;2.72;;;13.90;99.90;;;;;;4966135;28;20030;-73
2023/05/13 01:06:13;;;;;;;4.72;2.42;;;13.90;99.90;;;;;;4952314;28;20772;-76
2023/05/13 01:09:11;;;;;;;4.10;2.77;;;13.80;99.90;;;;;;4951991;28;20034;-71
2023/05/13 01:11:40;;;;;;;7.82;3.30;;;13.80;99.90;;;;;;4955620;28;20301;-74
2023/05/13 01:14:20;;;;;;;5.70;2.38;;;13.70;99.90;;;;;;4974659;28;20041;-76
2023/05/13 01:17:23;;;;;;;4.15;2.83;;;13.70;99.90;;;;;;4958240;28;20345;-73
2023/05/13 01:19:57;;;;;;;6.25;2.28;;;13.70;99.90;;;;;;4938862;28;20058;-73
2023/05/13 01:22:23;;;;;;;4.28;2.63;;;13.60;99.90;;;;;;4951595;28;20049;-76
2023/05/13 01:24:50;;;;;;;5.60;2.42;;;13.60;99.90;;;;;;4950348;28;20026;-71
2023/05/13 01:27:16;;;;;;;5.00;3.50;;;13.50;99.90;;;;;;4951583;28;20436;-74
2023/05/13 01:29:44;;;;;;;2.90;2.08;;;13.50;99.90;;;;;;4940003;28;20046;-71
2023/05/13 01:32:11;;;;;;;6.57;2.33;;;13.50;99.90;;;;;;4953849;28;20061;-72
2023/05/13 01:34:39;;;;;;;6.65;2.45;;;13.50;99.90;;;;;;4959164;28;20042;-72
2023/05/13 01:37:06;;;;;;;4.63;2.17;;;13.40;99.90;;;;;;4945883;28;20682;-72
2023/05/13 01:39:37;;;;;;;7.10;4.30;;;13.40;99.90;;;;;;4942604;28;20658;-75
2023/05/13 01:42:08;;;;;;;3.85;2.70;;;13.40;99.90;;;;;;4951009;28;20034;-73
2023/05/13 01:44:34;;;;;;;4.45;2.33;;;13.30;99.90;;;;;;4934438;28;20046;-74
2023/05/13 01:47:00;;;;;;;3.47;1.90;;;13.30;99.90;;;;;;4949780;28;20034;-72
2023/05/13 01:49:29;;;;;;;8.43;2.08;;;13.30;99.90;;;;;;4940665;28;20076;-75
2023/05/13 01:51:56;;;;;;;3.47;1.90;;;13.30;99.90;;;;;;4948409;28;20451;-73
2023/05/13 01:54:24;;;;;;;6.18;2.10;;;13.20;99.90;;;;;;4958647;28;20049;-73
2023/05/13 01:56:55;;;;;;;4.57;2.42;;;13.20;99.90;;;;;;4958720;28;20061;-71
2023/05/13 01:59:22;;;;;;;4.68;2.47;;;13.20;99.90;;;;;;4942620;28;20043;-71
2023/05/13 02:01:48;;;;;;;5.55;2.83;;;13.10;99.90;;;;;;4949376;28;20041;-75
2023/05/13 02:04:14;;;;;;;3.97;2.00;;;13.10;99.90;;;;;;4949532;28;20034;-74
2023/05/13 02:06:41;;;;;;;5.63;3.58;;;13.10;99.90;;;;;;4950734;28;20057;-76
2023/05/13 02:09:08;;;;;;;5.78;1.88;;;13.10;99.90;;;;;;4945199;28;20621;-74
2023/05/13 02:11:38;;;;;;;4.20;2.92;;;13.00;99.90;;;;;;4962672;28;20046;-71
2023/05/13 02:14:04;;;;;;;3.15;1.52;;;13.00;99.90;;;;;;4957371;28;20038;-75
2023/05/13 02:16:31;;;;;;;5.85;3.17;;;12.90;99.90;;;;;;4956245;28;20046;-75
2023/05/13 02:18:57;;;;;;;2.70;1.60;;;12.90;99.90;;;;;;4936979;28;20038;-71
2023/05/13 02:21:28;;;;;;;5.00;2.47;;;12.80;99.90;;;;;;4946890;28;20049;-75
2023/05/13 02:23:54;;;;;;;3.03;2.47;;;12.80;99.90;;;;;;4950091;28;21386;-73
2023/05/13 02:26:21;;;;;;;3.33;1.85;;;12.80;99.90;;;;;;4949831;28;20053;-71
2023/05/13 02:28:47;;;;;;;3.28;1.48;;;12.70;99.90;;;;;;4915710;28;20419;-72
2023/05/13 02:31:14;;;;;;;4.45;3.25;;;12.70;99.90;;;;;;4941068;28;20030;-74
2023/05/13 02:33:42;;;;;;;3.33;2.10;;;12.60;99.90;;;;;;4937964;28;20498;-71
2023/05/13 02:36:08;;;;;;;4.55;3.00;;;12.60;99.90;;;;;;4959121;28;20026;-74
2023/05/13 02:38:36;;;;;;;6.60;3.58;;;12.60;99.90;;;;;;4958211;28;20736;-73
2023/05/13 02:41:04;;;;;;;6.53;2.90;;;12.60;99.90;;;;;;4940242;28;20035;-72
2023/05/13 02:43:31;;;;;;;5.40;2.70;;;12.50;99.90;;;;;;4950703;28;20042;-76
2023/05/13 02:46:02;;;;;;;4.88;2.67;;;12.50;99.90;;;;;;4950602;28;20599;-72
2023/05/13 02:48:30;;;;;;;6.18;2.47;;;12.50;99.90;;;;;;4948692;28;20038;-74
2023/05/13 02:50:56;;;;;;;4.55;2.55;;;12.50;99.90;;;;;;4941749;28;20029;-71
2023/05/13 02:53:23;;;;;;;4.00;3.20;;;12.50;99.90;;;;;;4953489;28;20057;-75
2023/05/13 02:55:55;;;;;;;4.28;3.30;;;12.40;99.90;;;;;;4958150;28;20034;-74
2023/05/13 02:58:25;;;;;;;6.05;2.83;;;12.40;99.90;;;;;;4941768;28;20039;-73
2023/05/13 03:00:52;;;;;;;3.35;2.58;;;12.40;99.90;;;;;;4960890;28;20045;-74
2023/05/13 03:03:18;;;;;;;3.95;1.75;;;12.30;99.90;;;;;;4950305;28;20049;-76
2023/05/13 03:05:45;;;;;;;4.57;2.50;;;12.30;99.90;;;;;;4951426;28;20038;-75
2023/05/13 03:08:11;;;;;;;3.47;2.25;;;12.30;99.90;;;;;;4949491;28;20631;-75
2023/05/13 03:10:37;;;;;;;3.97;2.25;;;12.20;99.90;;;;;;4926864;28;22158;-76
2023/05/13 03:13:04;;;;;;;4.55;2.33;;;12.20;99.90;;;;;;4931234;28;20061;-72
2023/05/13 03:15:30;;;;;;;5.40;3.70;;;12.20;99.90;;;;;;4970371;28;20049;-75
2023/05/13 03:17:56;;;;;;;4.15;3.75;;;12.10;99.90;;;;;;4959317;28;20038;-71
2023/05/13 03:20:23;;;;;;;4.95;3.13;;;12.00;99.90;;;;;;4949968;28;20046;-71
2023/05/13 03:22:50;;;;;;;4.07;2.55;;;12.00;99.90;;;;;;4961917;28;20042;-71
2023/05/13 03:25:16;;;;;;;6.57;3.10;;;12.00;99.90;;;;;;4949382;28;20045;-74
2023/05/13 03:27:48;;;;;;;3.75;3.10;;;12.00;99.90;;;;;;4949853;28;20029;-76
2023/05/13 03:30:16;;;;;;;4.20;3.72;;;11.90;99.90;;;;;;4941620;28;20783;-72
2023/05/13 03:32:52;;;;;;;4.95;3.15;;;11.90;99.90;;;;;;4952211;28;20049;-72
2023/05/13 03:35:19;;;;;;;5.07;4.35;;;11.90;99.90;;;;;;4955826;28;20613;-72
2023/05/13 03:37:46;;;;;;;4.13;3.30;;;11.80;99.90;;;;;;4965233;28;20030;-73
2023/05/13 03:40:14;;;;;;;6.38;3.67;;;11.80;99.90;;;;;;4953412;28;20039;-72
2023/05/13 03:42:41;;;;;;;4.50;3.45;;;11.80;99.90;;;;;;4954781;28;20043;-75
2023/05/13 03:45:08;;;;;;;4.00;3.42;;;11.70;99.90;;;;;;4937369;28;22380;-72
2023/05/13 03:47:38;;;;;;;7.53;4.10;;;11.70;99.90;;;;;;4951682;28;20389;-76
2023/05/13 03:50:07;;;;;;;5.10;3.40;;;11.70;99.90;;;;;;4944210;28;20030;-74
2023/05/13 03:52:39;;;;;;;4.15;3.70;;;11.60;99.90;;;;;;4950723;28;20485;-75
2023/05/13 03:55:06;;;;;;;5.38;3.75;;;11.60;99.90;;;;;;4934957;28;20050;-76
2023/05/13 03:57:33;;;;;;;5.70;4.55;;;11.60;99.90;;;;;;4961892;28;20034;-72
2023/05/13 04:00:00;;;;;;;6.72;6.03;;;11.60;99.90;;;;;;4950544;28;20030;-72
2023/05/13 04:02:26;;;;;;;5.55;4.85;;;11.60;99.90;;;;;;4956959;28;20039;-72
2023/05/13 04:04:52;;;;;;;6.22;5.63;;;11.60;99.90;;;;;;4934251;28;20823;-73
2023/05/13 04:07:19;;;;;;;6.07;5.47;;;11.50;99.90;;;;;;4952554;28;20041;-71
2023/05/13 04:09:45;;;;;;;7.40;4.75;;;11.60;99.90;;;;;;4962177;28;20912;-72
2023/05/13 04:12:11;;;;;;;5.40;4.55;;;11.50;99.90;;;;;;4951166;28;20061;-74
2023/05/13 04:14:39;;;;;;;5.90;3.83;;;11.50;99.90;;;;;;4950887;28;20034;-71
2023/05/13 04:17:05;;;;;;;5.63;4.00;;;11.50;99.90;;;;;;4956554;28;20047;-75
2023/05/13 04:19:31;;;;;;;4.78;4.03;;;11.50;99.90;;;;;;4952775;28;20038;-72
2023/05/13 04:21:57;;;;;;;5.95;3.92;;;11.50;99.90;;;;;;4956718;28;20046;-73
2023/05/13 04:24:24;;;;;;;4.35;3.90;;;11.50;99.90;;;;;;4940536;28;20050;-71
2023/05/13 04:26:50;;;;;;;7.82;5.25;;;11.50;99.90;;;;;;4934743;28;20038;-73
2023/05/13 04:29:18;;;;;;;5.00;3.72;;;11.50;99.90;;;;;;4943609;28;20046;-75
2023/05/13 04:31:44;;;;;;;5.35;3.42;;;11.50;99.90;;;;;;4951342;28;20477;-74
2023/05/13 04:34:11;;;;;;;4.75;4.13;;;11.50;99.90;;;;;;4952038;28;20393;-73
2023/05/13 04:36:38;;;;;;;5.13;3.83;;;11.50;99.90;;;;;;4951861;28;20030;-74
2023/05/13 04:39:04;;;;;;;7.07;5.13;;;11.50;99.90;;;;;;4967512;28;20046;-72
2023/05/13 04:41:30;;;;;;;6.05;5.40;;;11.50;99.90;;;;;;4970661;28;20053;-73
2023/05/13 04:43:57;;;;;;;5.78;5.15;;;11.50;99.90;;;;;;4943507;28;20041;-71
2023/05/13 04:46:24;;;;;;;6.93;5.35;;;11.50;99.90;;;;;;4957963;28;20042;-75
2023/05/13 04:48:51;;;;;;;6.40;4.57;;;11.50;99.90;;;;;;4964811;28;20049;-72
2023/05/13 04:51:18;;;;;;;7.53;5.53;;;11.50;99.90;;;;;;4963124;28;20033;-73
2023/05/13 04:53:45;;;;;;;5.13;4.63;;;11.50;99.90;;;;;;4936643;28;20390;-74
2023/05/13 04:56:12;;;;;;;4.78;4.25;;;11.50;99.90;;;;;;4953130;28;20045;-74
2023/05/13 04:58:38;;;;;;;4.75;3.95;;;11.50;99.90;;;;;;4949405;28;20034;-71
2023/05/13 05:01:04;;;;;;;6.82;4.90;;;11.50;99.90;;;;;;4964804;28;20042;-73
2023/05/13 05:03:31;;;;;;;5.10;4.40;;;11.60;99.90;;;;;;4957455;28;20035;-72
2023/05/13 05:05:58;;;;;;;6.55;5.53;;;11.60;99.90;;;;;;4956269;28;20513;-73
2023/05/13 05:08:25;;;;;;;5.13;3.97;;;11.70;99.90;;;;;;4952765;28;20042;-72
2023/05/13 05:10:51;;;;;;;6.00;4.80;;;11.80;99.90;;;;;;4941991;28;20736;-73
2023/05/13 05:13:18;;;;;;;6.90;4.80;;;11.90;99.90;;;;;;4949827;28;20054;-74
2023/05/13 05:15:45;;;;;;;7.10;5.22;;;12.00;99.90;;;;;;4952622;28;20026;-75
2023/05/13 05:18:12;;;;;;;6.55;5.72;;;12.00;99.90;;;;;;4952499;28;20038;-74
2023/05/13 05:20:40;;;;;;;6.05;5.28;;;12.00;99.90;;;;;;4928439;28;20552;-76
2023/05/13 05:23:12;;;;;;;7.50;4.90;;;12.20;99.90;;;;;;4941693;28;20058;-75
2023/05/13 05:25:39;;;;;;;6.07;5.15;;;12.40;99.90;;;;;;4959732;28;20037;-72
2023/05/13 05:28:05;;;;;;;5.28;3.60;;;12.60;99.90;;;;;;4956093;28;20058;-74
2023/05/13 05:30:38;;;;;;;5.20;4.55;;;12.70;99.90;;;;;;4940471;28;20065;-74
2023/05/13 05:33:06;;;;;;;6.68;5.05;;;12.80;99.90;;;;;;4963098;28;20045;-71
2023/05/13 05:35:37;;;;;;;4.75;3.75;;;12.80;99.90;;;;;;4951919;28;20042;-74
2023/05/13 05:38:06;;;;;;;3.63;3.33;;;12.90;99.90;;;;;;4933935;28;20042;-74
2023/05/13 05:40:39;;;;;;;3.78;3.45;;;13.10;99.90;;;;;;4911465;28;20088;-74
2023/05/13 05:43:06;;;;;;;5.63;4.60;;;13.30;99.90;;;;;;4969597;28;20055;-75
2023/05/13 05:45:39;;;;;;;4.57;4.18;;;13.50;99.90;;;;;;4959915;28;20038;-73
2023/05/13 05:48:07;;;;;;;9.80;5.13;;;13.80;99.90;;;;;;4940536;28;20416;-71
2023/05/13 05:50:35;;;;;;;4.78;4.22;;;14.00;99.90;;;;;;4927828;28;20507;-72
2023/05/13 05:53:05;;;;;;;7.15;5.03;;;14.10;99.90;;;;;;4947514;28;20045;-74
2023/05/13 05:55:33;;;;;;;3.83;3.42;;;14.30;99.90;;;;;;4949526;28;20030;-76
2023/05/13 05:58:04;;;;;;;4.38;3.75;;;14.50;99.90;;;;;;4967100;28;20042;-71
2023/05/13 06:00:32;;;;;;;4.38;3.95;;;14.70;99.90;;;;;;4953861;28;20046;-70
2023/05/13 06:02:58;;;;;;;7.13;4.28;;;14.90;99.90;;;;;;4949094;28;20567;-72
2023/05/13 06:05:24;;;;;;;6.22;4.47;;;15.00;99.90;;;;;;4960293;28;20046;-72
2023/05/13 06:07:51;;;;;;;11.15;6.32;;;14.90;99.90;;;;;;4957842;28;20045;-72
2023/05/13 06:10:18;;;;;;;5.28;4.50;;;14.90;99.90;;;;;;4940014;28;20046;-70
2023/05/13 06:12:45;;;;;;;5.55;3.50;;;15.00;99.90;;;;;;4933594;28;20162;-72
2023/05/13 06:15:14;;;;;;;4.07;3.67;;;15.10;99.90;;;;;;4933340;28;20754;-73
2023/05/13 06:17:41;;;;;;;4.25;3.85;;;15.20;99.90;;;;;;4948609;28;20523;-74
2023/05/13 06:20:08;;;;;;;5.65;4.10;;;15.10;99.90;;;;;;4942627;28;20030;-73
2023/05/13 06:22:35;;;;;;;5.63;5.03;;;15.00;99.90;;;;;;4949748;28;20042;-71
2023/05/13 06:25:01;;;;;;;4.50;3.75;;;15.10;99.90;;;;;;4954251;28;20042;-75
2023/05/13 06:27:27;;;;;;;6.22;3.72;;;15.30;99.90;;;;;;4958441;28;20046;-74
2023/05/13 06:29:54;;;;;;;4.05;3.38;;;15.70;99.90;;;;;;4934796;28;20045;-72
2023/05/13 06:32:20;;;;;;;5.97;3.50;;;16.10;99.90;;;;;;4932771;28;20045;-74
2023/05/13 06:34:48;;;;;;;4.70;3.50;;;16.50;99.90;;;;;;4950793;28;20517;-74
2023/05/13 06:37:14;;;;;;;4.78;4.10;;;16.80;99.90;;;;;;4929553;28;20045;-76
2023/05/13 06:39:41;;;;;;;5.95;4.13;;;17.10;99.90;;;;;;4936412;28;20410;-71
2023/05/13 06:42:07;;;;;;;3.45;2.60;;;17.20;99.90;;;;;;4932754;28;20046;-74
2023/05/13 06:44:39;;;;;;;4.85;3.53;;;17.40;99.90;;;;;;4948794;28;20059;-72
2023/05/13 06:47:06;;;;;;;3.17;2.72;;;17.50;99.90;;;;;;4942183;28;20038;-75
2023/05/13 06:49:32;;;;;;;5.10;4.15;;;17.80;99.90;;;;;;4928630;28;20528;-76
2023/05/13 06:51:59;;;;;;;4.20;3.72;;;18.00;99.90;;;;;;4936525;28;20045;-76
2023/05/13 06:54:26;;;;;;;3.55;3.00;;;18.10;99.90;;;;;;4951525;28;20459;-76
2023/05/13 06:56:55;;;;;;;3.30;2.95;;;18.20;99.90;;;;;;4950936;28;20397;-76
2023/05/13 06:59:22;;;;;;;6.72;3.58;;;18.30;99.90;;;;;;4942393;28;20523;-72
2023/05/13 07:01:48;;;;;;;4.65;3.13;;;18.30;99.90;;;;;;4933250;28;20039;-73
2023/05/13 07:04:14;;;;;;;4.47;3.25;;;18.30;99.90;;;;;;4952239;28;20034;-73
2023/05/13 07:06:41;;;;;;;5.53;4.40;;;18.00;99.90;;;;;;4962783;28;20042;-75
2023/05/13 07:09:10;;;;;;;5.75;3.03;;;17.80;99.90;;;;;;4971269;28;20043;-72
2023/05/13 07:11:36;;;;;;;3.42;2.78;;;17.60;99.90;;;;;;4958568;28;20039;-74
2023/05/13 07:14:02;;;;;;;4.45;2.45;;;17.30;99.90;;;;;;4951189;28;20038;-73
2023/05/13 07:16:29;;;;;;;4.63;3.17;;;17.20;99.90;;;;;;4956246;28;20281;-73
2023/05/13 07:18:55;;;;;;;3.25;2.55;;;17.20;99.90;;;;;;4952129;28;20042;-74
2023/05/13 07:21:21;;;;;;;4.18;2.20;;;17.50;99.90;;;;;;4949918;28;20042;-73
2023/05/13 07:23:48;;;;;;;6.28;3.70;;;17.80;99.90;;;;;;4954896;28;20046;-73
2023/05/13 07:26:14;;;;;;;3.28;2.70;;;18.10;99.90;;;;;;4957235;28;20042;-75
2023/05/13 07:28:40;;;;;;;5.68;3.15;;;18.30;99.90;;;;;;4961624;28;20065;-72
2023/05/13 07:31:07;;;;;;;5.43;2.83;;;18.50;99.90;;;;;;4935791;28;20038;-71
2023/05/13 07:33:34;;;;;;;7.28;2.72;;;18.70;99.90;;;;;;4956674;28;20148;-74
2023/05/13 07:36:01;;;;;;;3.60;2.70;;;18.90;99.90;;;;;;4923823;28;20054;-73
2023/05/13 07:38:27;;;;;;;4.43;2.60;;;19.10;99.90;;;;;;4954520;28;20042;-74
2023/05/13 07:40:53;;;;;;;6.53;3.28;;;19.20;99.90;;;;;;4949386;28;20045;-71
2023/05/13 07:43:22;;;;;;;4.80;2.45;;;19.40;99.90;;;;;;4953787;28;20683;-71
2023/05/13 07:45:50;;;;;;;5.00;2.58;;;19.60;99.90;;;;;;4953943;28;20030;-74
2023/05/13 07:48:17;;;;;;;4.28;2.50;;;19.70;99.90;;;;;;4958825;28;20061;-74
2023/05/13 07:50:44;;;;;;;10.82;3.50;;;19.80;99.90;;;;;;4952682;28;20049;-74
2023/05/13 07:53:11;;;;;;;8.48;2.45;;;20.00;99.90;;;;;;4945640;28;20038;-72
2023/05/13 07:55:38;;;;;;;5.38;1.45;;;20.10;99.90;;;;;;4955552;28;20469;-73
2023/05/13 07:58:05;;;;;;;3.67;2.45;;;20.20;99.90;;;;;;4938503;28;20042;-71
2023/05/13 08:00:31;;;;;;;4.07;2.90;;;20.30;99.90;;;;;;4958081;28;20042;-73
2023/05/13 08:02:58;;;;;;;8.63;2.63;;;20.40;99.90;;;;;;4953803;28;20046;-73
2023/05/13 08:05:24;;;;;;;7.13;3.40;;;20.60;99.90;;;;;;4970415;28;20402;-74
2023/05/13 08:07:54;;;;;;;5.35;3.28;;;20.70;99.90;;;;;;4960136;28;20034;-72
2023/05/13 08:10:20;;;;;;;3.45;2.17;;;20.80;99.90;;;;;;4935697;28;20057;-75
2023/05/13 08:12:51;;;;;;;3.75;2.70;;;21.00;99.90;;;;;;4960907;28;20065;-75
2023/05/13 08:15:20;;;;;;;3.65;2.38;;;21.10;99.90;;;;;;4952358;28;20034;-72
2023/05/13 08:17:46;;;;;;;3.97;1.77;;;21.20;99.90;;;;;;4936595;28;20054;-72
2023/05/13 08:20:14;;;;;;;5.53;1.75;;;21.40;99.90;;;;;;4958815;28;20420;-75
2023/05/13 08:22:41;;;;;;;3.38;1.20;;;21.60;99.90;;;;;;4951823;28;20500;-75
2023/05/13 08:25:10;;;;;;;4.40;2.22;;;21.70;99.90;;;;;;4952332;28;20029;-74
2023/05/13 08:27:36;;;;;;;3.13;1.90;;;21.80;99.90;;;;;;4955508;28;20045;-72
2023/05/13 08:30:03;;;;;;;7.10;1.52;;;21.90;99.70;;;;;;4949774;28;20042;-74
2023/05/13 08:32:30;;;;;;;3.72;2.17;;;22.00;99.00;;;;;;4959803;28;20049;-71
2023/05/13 08:34:56;;;;;;;3.90;1.50;;;22.00;98.70;;;;;;4957700;28;20401;-71
2023/05/13 08:37:22;;;;;;;10.02;1.90;;;22.00;98.30;;;;;;4952495;28;20053;-72
2023/05/13 08:39:49;;;;;;;8.93;3.60;;;22.10;97.80;;;;;;4943897;28;20378;-74
2023/05/13 08:42:18;;;;;;;5.95;3.00;;;22.30;97.90;;;;;;4920569;28;20494;-72
2023/05/13 08:44:45;;;;;;;8.35;2.70;;;22.40;97.90;;;;;;4950885;28;20035;-73
2023/05/13 08:47:11;;;;;;;2.88;1.63;;;22.40;97.80;;;;;;4951668;28;20042;-73
2023/05/13 08:49:38;;;;;;;41.55;13.90;;;22.50;97.40;;;;;;4946233;28;20050;-73
2023/05/13 08:52:05;;;;;;;2.10;1.35;;;22.60;98.10;;;;;;4973346;28;20039;-71
2023/05/13 08:54:32;;;;;;;6.30;4.50;;;22.70;97.80;;;;;;4959457;28;20038;-73
2023/05/13 08:56:58;;;;;;;7.40;3.22;;;22.80;96.00;;;;;;4952465;28;20041;-75
2023/05/13 08:59:24;;;;;;;19.58;6.72;;;22.90;96.10;;;;;;4944519;28;20038;-73
2023/05/13 09:01:52;;;;;;;13.02;5.75;;;23.00;96.60;;;;;;4936430;28;20046;-74
2023/05/13 09:04:22;;;;;;;7.65;4.70;;;23.00;95.20;;;;;;4951551;28;20046;-76
2023/05/13 09:06:48;;;;;;;6.40;3.53;;;23.00;95.00;;;;;;4952235;28;20061;-76
2023/05/13 09:09:15;;;;;;;4.57;2.90;;;23.00;94.60;;;;;;4928356;28;20410;-74
2023/05/13 09:11:41;;;;;;;2.60;1.92;;;23.00;93.90;;;;;;4959502;28;20038;-73
2023/05/13 09:14:10;;;;;;;3.63;2.15;;;23.00;94.40;;;;;;4959964;28;20033;-73
2023/05/13 09:16:37;;;;;;;5.13;2.40;;;23.00;93.70;;;;;;4954243;28;20039;-75
2023/05/13 09:19:05;;;;;;;12.07;4.35;;;23.10;93.70;;;;;;4945167;28;20038;-73
2023/05/13 09:21:34;;;;;;;4.50;2.97;;;23.20;93.30;;;;;;4944479;28;20050;-74
2023/05/13 09:24:10;;;;;;;6.40;2.83;;;23.30;92.90;;;;;;4952673;28;20038;-73
2023/05/13 09:26:37;;;;;;;3.55;2.20;;;23.40;93.00;;;;;;4951170;28;20533;-71
2023/05/13 09:29:40;;;;;;;7.85;3.90;;;23.50;92.60;;;;;;4947672;28;20076;-72
2023/05/13 09:32:08;;;;;;;;;;;23.60;92.50;;;;;;4943052;28;20287;-74
2023/05/13 09:34:34;;;;;;;5.18;2.85;;;23.60;91.70;;;;;;4958160;28;20294;-72
2023/05/13 09:37:05;;;;;;;3.58;2.13;;;23.60;92.20;;;;;;4958325;28;20497;-73
2023/05/13 09:39:40;;;;;;;4.18;1.92;;;23.70;92.00;;;;;;4924820;28;20741;-74
2023/05/13 09:42:17;;;;;;;6.13;2.85;;;23.80;91.50;;;;;;4967278;28;20414;-71
2023/05/13 09:44:44;;;;;;;6.28;2.80;;;23.80;90.80;;;;;;4948887;28;20057;-75
2023/05/13 09:47:13;;;;;;;10.88;5.70;;;23.90;90.50;;;;;;4933900;28;20251;-72
2023/05/13 09:49:40;;;;;;;21.98;11.38;;;24.00;91.20;;;;;;4939953;28;20418;-75
2023/05/13 09:52:10;;;;;;;12.23;5.18;;;24.00;91.40;;;;;;4959063;28;20056;-73
2023/05/13 09:54:37;;;;;;;43.05;15.30;;;24.20;91.50;;;;;;4942399;28;20447;-77
2023/05/13 09:57:04;;;;;;;38.97;15.73;;;24.30;91.80;;;;;;4958360;28;20034;-74
2023/05/13 09:59:34;;;;;;;11.32;4.88;;;24.30;91.30;;;;;;4940242;28;20030;-72
2023/05/13 10:02:05;;;;;;;6.53;3.03;;;24.30;91.20;;;;;;4950248;28;20065;-71
2023/05/13 10:04:31;;;;;;;6.85;3.05;;;24.30;88.20;;;;;;4952419;28;20035;-74
2023/05/13 10:07:00;;;;;;;5.30;2.40;;;24.20;89.60;;;;;;4951170;28;20041;-74
2023/05/13 10:09:29;;;;;;;7.90;3.72;;;24.30;89.10;;;;;;4912942;28;20542;-72
2023/05/13 10:11:57;;;;;;;5.35;2.92;;;24.40;88.50;;;;;;4949095;28;20065;-72
2023/05/13 10:14:23;;;;;;;5.93;1.55;;;24.50;88.40;;;;;;4958652;28;20374;-72
2023/05/13 10:16:50;;;;;;;4.00;2.08;;;24.60;86.90;;;;;;4956905;28;20049;-74
2023/05/13 10:19:17;;;;;;;5.78;2.25;;;24.60;85.70;;;;;;4948100;28;20065;-73
2023/05/13 10:21:44;;;;;;;7.53;3.10;;;24.70;85.40;;;;;;4950034;28;20042;-76
2023/05/13 10:24:11;;;;;;;5.53;2.15;;;24.70;83.50;;;;;;4934961;28;20042;-74
2023/05/13 10:26:40;;;;;;;4.68;1.98;;;24.70;84.60;;;;;;4950862;28;20041;-75
2023/05/13 10:29:09;;;;;;;6.07;2.00;;;24.90;86.40;;;;;;4930511;28;20046;-73
2023/05/13 10:31:37;;;;;;;2.80;1.85;;;25.10;83.30;;;;;;4947841;28;20492;-71
2023/05/13 10:34:03;;;;;;;4.22;2.00;;;25.20;81.70;;;;;;4970040;28;20030;-74
2023/05/13 10:36:35;;;;;;;8.20;2.92;;;25.40;81.90;;;;;;4959841;28;20042;-74
2023/05/13 10:39:20;;;;;;;;;;;25.60;81.70;;;;;;4958195;28;20039;-71
2023/05/13 10:42:14;;;;;;;4.63;1.58;;;25.80;82.00;;;;;;4954961;28;20366;-75
2023/05/13 10:44:43;;;;;;;5.28;2.60;;;26.20;79.70;;;;;;4956042;28;20041;-72
2023/05/13 10:47:10;;;;;;;3.92;1.98;;;26.50;80.20;;;;;;4954924;28;20049;-73
2023/05/13 10:49:36;;;;;;;4.90;2.17;;;26.90;78.40;;;;;;4944355;28;20439;-72
2023/05/13 10:52:04;;;;;;;2.95;1.50;;;27.10;75.30;;;;;;4954849;28;20038;-72
2023/05/13 10:54:37;;;;;;;3.78;1.88;;;27.30;73.20;;;;;;4955687;28;20038;-74
2023/05/13 10:57:04;;;;;;;3.53;1.60;;;27.50;73.00;;;;;;4959472;28;20574;-75
2023/05/13 10:59:30;;;;;;;3.85;1.30;;;27.70;71.30;;;;;;4969206;28;20046;-74
2023/05/13 11:02:22;;;;;;;4.85;1.70;;;27.90;70.50;;;;;;4955111;28;20069;-73
2023/05/13 11:05:01;;;;;;;4.72;1.85;;;28.20;70.80;;;;;;4956512;28;20043;-76
2023/05/13 11:07:28;;;;;;;5.43;2.10;;;28.40;67.70;;;;;;4955264;28;20061;-76
2023/05/13 11:09:54;;;;;;;4.13;2.17;;;28.50;67.80;;;;;;4928030;28;20053;-72
2023/05/13 11:12:21;;;;;;;8.15;2.20;;;28.60;67.00;;;;;;4954575;28;20134;-74
2023/05/13 11:14:47;;;;;;;3.47;2.05;;;28.60;65.90;;;;;;4958286;28;20247;-73
2023/05/13 11:17:19;;;;;;;8.45;2.05;;;28.70;66.30;;;;;;4959676;28;20566;-74
2023/05/13 11:19:47;;;;;;;3.55;1.63;;;29.10;65.10;;;;;;4919659;28;20825;-74
2023/05/13 11:22:18;;;;;;;2.40;1.25;;;29.30;64.80;;;;;;4957116;28;20045;-77
2023/05/13 11:25:06;;;;;;;5.40;1.70;;;29.60;62.80;;;;;;4955073;28;20038;-76
2023/05/13 11:27:38;;;;;;;2.13;1.42;;;30.00;62.80;;;;;;4952420;28;20305;-73
2023/05/13 11:30:07;;;;;;;2.97;1.70;;;30.40;62.40;;;;;;4944734;28;20050;-72
2023/05/13 11:32:57;;;;;;;1.98;1.38;;;30.70;61.00;;;;;;4969996;28;20042;-74
2023/05/13 11:35:27;;;;;;;3.08;1.50;;;31.10;59.70;;;;;;4958040;28;20034;-71
2023/05/13 11:37:59;;;;;;;5.32;1.58;;;31.50;59.00;;;;;;4960286;28;21209;-73
2023/05/13 11:40:29;;;;;;;2.83;1.27;;;31.70;56.60;;;;;;4953393;28;20029;-77
2023/05/13 11:42:57;;;;;;;3.30;1.47;;;32.10;57.70;;;;;;4954203;28;20041;-77
2023/05/13 11:45:24;;;;;;;6.15;1.33;;;32.10;54.70;;;;;;4952090;28;20034;-72
2023/05/13 11:47:52;;;;;;;2.22;1.33;;;31.60;53.80;;;;;;4952368;28;20047;-72
2023/05/13 11:50:23;;;;;;;1.90;1.10;;;31.60;53.80;;;;;;4943755;28;20912;-74
2023/05/13 11:52:57;;;;;;;2.80;1.80;;;31.90;53.70;;;;;;4952442;28;20489;-73
2023/05/13 11:55:33;;;;;;;8.18;6.35;;;31.50;52.40;;;;;;4954160;28;21736;-73
2023/05/13 11:58:00;;;;;;;3.65;1.85;;;30.90;51.50;;;;;;4962125;28;20390;-71
2023/05/13 12:00:28;;;;;;;2.78;1.40;;;30.40;51.40;;;;;;4953650;28;20042;-73
2023/05/13 12:02:55;;;;;;;68.07;19.33;;;30.70;51.00;;;;;;4959120;28;20030;-72
2023/05/13 12:05:22;;;;;;;28.05;21.90;;;31.40;50.40;;;;;;4955147;28;20042;-75
2023/05/13 12:07:48;;;;;;;6.00;3.42;;;31.60;50.10;;;;;;4952351;28;20425;-70
2023/05/13 12:10:15;;;;;;;4.15;1.63;;;31.50;51.20;;;;;;4942840;28;20054;-71
2023/05/13 12:12:44;;;;;;;3.92;2.05;;;31.10;51.10;;;;;;4935748;28;20057;-76
2023/05/13 12:15:15;;;;;;;4.18;1.60;;;30.40;52.00;;;;;;4952398;28;20034;-76
2023/05/13 12:17:46;;;;;;;3.65;1.52;;;30.60;52.60;;;;;;4956017;28;20026;-73
2023/05/13 12:20:23;;;;;;;5.25;1.85;;;31.20;52.70;;;;;;4950019;28;20046;-71
2023/05/13 12:22:52;;;;;;;5.18;4.13;;;31.90;50.40;;;;;;4959738;28;20046;-73
2023/05/13 12:25:37;;;;;;;5.60;3.47;;;32.30;49.80;;;;;;4953424;28;20042;-75
2023/05/13 12:28:19;;;;;;;3.63;2.53;;;33.00;50.00;;;;;;4950989;28;20039;-77
2023/05/13 12:30:58;;;;;;;3.13;1.90;;;33.70;49.50;;;;;;4946984;28;20604;-73
2023/05/13 12:33:27;;;;;;;2.28;1.10;;;33.90;48.40;;;;;;4951687;28;20473;-73
2023/05/13 12:36:14;;;;;;;8.15;5.75;;;33.10;46.60;;;;;;4954041;28;20038;-70
2023/05/13 12:38:53;;;;;;;3.92;3.20;;;32.10;46.00;;;;;;4961055;28;20530;-70
2023/05/13 12:41:21;;;;;;;4.22;1.40;;;31.20;46.80;;;;;;4954505;28;20555;-71
2023/05/13 12:43:48;;;;;;;3.97;1.10;;;31.70;47.40;;;;;;4975656;28;21059;-77
2023/05/13 12:46:15;;;;;;;3.55;1.55;;;32.40;47.30;;;;;;4956719;28;20422;-70
2023/05/13 12:48:42;;;;;;;1.88;1.00;;;33.20;46.00;;;;;;4951998;28;20046;-70
2023/05/13 12:51:09;;;;;;;1.98;1.20;;;33.90;45.10;;;;;;4945969;28;20053;-74
2023/05/13 12:53:35;;;;;;;3.03;1.45;;;34.30;44.40;;;;;;4951057;28;20038;-71